DTTA/TUN METAR and TAF weather

Enter ICAO airport designator
Station Type Date Time Source
DTTA METAR 2022/07/01 01:30 UTC NOAA

DTTA 010130Z VRB02KT CAVOK 27/21 Q1012


Station Type Date Time Source
DTTA Decoded METAR 2022/07/01 01:30 UTC NOAA

Tunis-Carthage, Tunisia (DTTA) 36-50N 010-14E 4M
Jun 30, 2022 - 09:30 PM EDT / 2022.07.01 0130 UTC
Wind: Variable at 2 MPH (2 KT):0
Visibility: greater than 7 mile(s):0
Temperature: 80 F (27 C)
Dew Point: 69 F (21 C)
Relative Humidity: 69%
Pressure (altimeter): 29.88 in. Hg (1012 hPa)
ob: DTTA 010130Z VRB02KT CAVOK 27/21 Q1012
cycle: 1

Station Type Date Time Source
DTTA TAF 2022/06/30 18:39 UTC NOAA

TAF DTTA 301700Z 3018/0118 11007KT 9999 FEW026
BECMG 3018/3020 VRB03KT
BECMG 0110/0112 03010KT

Example: see airport list